Pride Of Rotterdam — PBAJ — position and weather

sailwx.info

Track history (hours):
 
Tides and Currents Weather Stations Pressure Air Temp Water Temp Dewpoint Dewpoint Depression Visibility Wind Speed Wind Dir Waves Ship Positions

Pride Of Rotterdam

Operator: P&O Ferries

Last reported at 2019-Sep-17 08:29 UTC. Time now 2019-Sep-17 08:53 UTC.
Position N 51°57' E 004°08'.

Length 214 m; draft 5.8 m.

Type: Ship. MMSI: 244980000.

Date/timePositionNaut miles runAvg speedWind from/ knotsBaromVisibWave heightAir tempDewpointWater temp
2019-Sep-17 08:29N 51°57' E 004°08'0 0.0
2019-Sep-17 07:59N 51°57' E 004°08'0 0.0
2019-Sep-17 07:29N 51°57' E 004°08'0 0.0
2019-Sep-17 06:58N 51°57' E 004°08'0 0.0
2019-Sep-17 06:30N 51°57' E 004°08'2 3.2
2019-Sep-17 06:00N 51°58' E 004°07'815.7
2019-Sep-17 05:30N 52°01' E 003°55'917.9
2019-Sep-17 05:00N 52°04' E 003°41'917.8
2019-Sep-17 04:29N 52°08' E 003°28'817.1
2019-Sep-17 04:00N 52°13' E 003°17'917.4
2019-Sep-17 03:28N 52°19' E 003°05'917.6
2019-Sep-17 02:56N 52°25' E 002°53'818.0
2019-Sep-17 02:30N 52°29' E 002°43'917.8
2019-Sep-17 02:00N 52°35' E 002°32'918.1
2019-Sep-17 01:30N 52°41' E 002°21'918.8
2019-Sep-17 01:00N 52°48' E 002°10'918.6
2019-Sep-17 00:31N 52°54' E 001°59'918.3
2019-Sep-17 00:00N 52°59' E 001°46'918.6
2019-Sep-16 23:30N 53°04' E 001°33'918.9
2019-Sep-16 23:00N 53°10' E 001°21'919.0
2019-Sep-16 22:30N 53°16' E 001°08'2218.4
2019-Sep-16 21:19N 53°26' E 000°36'618.1
2019-Sep-16 21:00N 53°28' E 000°27'917.5
2019-Sep-16 20:30N 53°32' E 000°14'918.8
2019-Sep-16 20:00N 53°35' W 000°01'816.5
2019-Sep-16 19:30N 53°40' W 000°13'510.0
2019-Sep-16 19:00N 53°44' W 000°17'0 0.0
2019-Sep-16 18:29N 53°44' W 000°17'0 0.0
2019-Sep-16 17:59N 53°44' W 000°17'0 0.0
2019-Sep-16 17:29N 53°44' W 000°17'0 0.0
2019-Sep-16 16:59N 53°44' W 000°17'0 0.0
2019-Sep-16 16:29N 53°44' W 000°17'0 0.0
2019-Sep-16 15:58N 53°44' W 000°17'0 0.0
2019-Sep-16 15:28N 53°44' W 000°17'0 0.0
2019-Sep-16 14:58N 53°44' W 000°17'0 0.0
2019-Sep-16 14:28N 53°44' W 000°17'0 0.0
2019-Sep-16 14:00N 53°44' W 000°17'0 0.0
2019-Sep-16 13:30N 53°44' W 000°17'0 0.0
2019-Sep-16 13:00N 53°44' W 000°17'0 0.0
2019-Sep-16 12:30N 53°44' W 000°17'0 0.0
2019-Sep-16 12:00N 53°44' W 000°17'0 0.0
2019-Sep-16 11:29N 53°44' W 000°17'0 0.0
2019-Sep-16 10:59N 53°44' W 000°17'0 0.0
2019-Sep-16 10:29N 53°44' W 000°17'0 0.0
2019-Sep-16 09:59N 53°44' W 000°17'0 0.0
2019-Sep-16 09:29N 53°44' W 000°17'0 0.0
2019-Sep-16 08:58N 53°44' W 000°17'0 0.0
2019-Sep-16 08:28N 53°44' W 000°17'0 0.0
2019-Sep-16 07:58N 53°44' W 000°17'0 0.0
2019-Sep-16 07:28N 53°44' W 000°17'0 0.0
2019-Sep-16 07:00N 53°44' W 000°17'0 0.0
2019-Sep-16 06:30N 53°44' W 000°17'0 0.0
2019-Sep-16 06:00N 53°44' W 000°17'2 3.6
2019-Sep-16 05:30N 53°43' W 000°15'917.4
2019-Sep-16 05:00N 53°37' W 000°05'918.8
2019-Sep-16 04:31N 53°33' E 000°10'814.9
2019-Sep-16 04:00N 53°30' E 000°22'1015.1
2019-Sep-16 03:19N 53°26' E 000°38'516.0
2019-Sep-16 03:00N 53°24' E 000°45'917.1
2019-Sep-16 02:31N 53°21' E 000°58'917.7
2019-Sep-16 02:01N 53°14' E 001°09'918.4
2019-Sep-16 01:31N 53°08' E 001°19'918.5
2019-Sep-16 01:01N 53°01' E 001°30'918.8
2019-Sep-16 00:30N 52°54' E 001°41'918.6
2019-Sep-16 00:00N 52°48' E 001°53'917.8
2019-Sep-15 23:30N 52°43' E 002°05'816.9
2019-Sep-15 23:00N 52°39' E 002°17'816.2
2019-Sep-15 22:30N 52°35' E 002°28'916.4
2019-Sep-15 21:57N 52°29' E 002°40'2116.7
2019-Sep-15 20:43N 52°18' E 003°09'416.8
2019-Sep-15 20:29N 52°16' E 003°14'816.6
2019-Sep-15 20:00N 52°11' E 003°24'917.2
2019-Sep-15 19:30N 52°07' E 003°37'917.3
2019-Sep-15 19:01N 52°04' E 003°50'611.1
2019-Sep-15 18:31N 52°02' E 003°58'713.1
2019-Sep-15 18:01N 51°58' E 004°07'2 3.2
2019-Sep-15 17:30N 51°57' E 004°08'0 0.0
2019-Sep-15 16:59N 51°57' E 004°08'0 0.0
2019-Sep-15 16:29N 51°57' E 004°08'0 0.0
2019-Sep-15 15:59N 51°57' E 004°08'0 0.0
2019-Sep-15 15:29N 51°57' E 004°08'0 0.0
2019-Sep-15 14:58N 51°57' E 004°08'0 0.0
2019-Sep-15 14:28N 51°57' E 004°08'0 0.0
2019-Sep-15 13:58N 51°57' E 004°08'0 0.0
2019-Sep-15 13:28N 51°57' E 004°08'0 0.0
2019-Sep-15 12:58N 51°57' E 004°08'0 0.0
2019-Sep-15 12:30N 51°57' E 004°08'0 0.0
2019-Sep-15 12:00N 51°57' E 004°08'0 0.0
2019-Sep-15 11:30N 51°57' E 004°08'0 0.0
2019-Sep-15 11:00N 51°57' E 004°08'0 0.0
2019-Sep-15 10:30N 51°57' E 004°08'0 0.0
2019-Sep-15 09:59N 51°57' E 004°08'0 0.0
2019-Sep-15 09:29N 51°57' E 004°08'0 0.0
2019-Sep-15 08:59N 51°57' E 004°08'0 0.0
2019-Sep-15 08:29N 51°57' E 004°08'0 0.0
2019-Sep-15 07:55N 51°57' E 004°08'0 0.0
2019-Sep-15 07:28N 51°57' E 004°08'0 0.0
2019-Sep-15 07:01N 51°57' E 004°08'2 4.0
2019-Sep-15 06:30N 51°58' E 004°06'815.5
2019-Sep-15 06:00N 52°00' E 003°54'713.5
2019-Sep-15 05:30N 52°02' E 003°43'816.4
2019-Sep-15 05:00N 52°06' E 003°32'816.3
2019-Sep-15 04:31N 52°10' E 003°21'816.0
2019-Sep-15 04:01N 52°15' E 003°10'816.4
2019-Sep-15 03:30N 52°21' E 003°00'816.5
2019-Sep-15 03:01N 52°26' E 002°50'816.4
2019-Sep-15 02:30N 52°31' E 002°39'816.3
2019-Sep-15 02:01N 52°36' E 002°29'816.3
2019-Sep-15 01:31N 52°42' E 002°19'815.7
2019-Sep-15 01:00N 52°48' E 002°10'815.5
2019-Sep-15 00:31N 52°53' E 002°01'815.8
2019-Sep-15 00:01N 52°57' E 001°50'816.0
2019-Sep-14 23:31N 53°02' E 001°39'816.3
2019-Sep-14 23:01N 53°07' E 001°28'917.0
2019-Sep-14 22:31N 53°12' E 001°17'917.6
2019-Sep-14 22:01N 53°17' E 001°05'917.7
2019-Sep-14 21:30N 53°22' E 000°53'917.4
2019-Sep-14 20:59N 53°27' E 000°40'817.2
2019-Sep-14 20:30N 53°31' E 000°28'817.0
2019-Sep-14 20:00N 53°33' E 000°14'918.4
2019-Sep-14 19:30N 53°35' W 000°01'816.9
2019-Sep-14 19:01N 53°40' W 000°13'5 9.6
2019-Sep-14 18:30N 53°44' W 000°17'0 0.0
2019-Sep-14 18:00N 53°44' W 000°17'0 0.0
2019-Sep-14 17:30N 53°44' W 000°17'0 0.0
2019-Sep-14 17:01N 53°44' W 000°17'0 0.0
2019-Sep-14 16:30N 53°44' W 000°17'0 0.0
2019-Sep-14 16:00N 53°44' W 000°17'0 0.0
2019-Sep-14 15:30N 53°44' W 000°17'0 0.0
2019-Sep-14 15:00N 53°44' W 000°17'0 0.0
2019-Sep-14 14:30N 53°44' W 000°17'0 0.0
2019-Sep-14 14:00N 53°44' W 000°17'0 0.0
2019-Sep-14 13:30N 53°44' W 000°17'0 0.0
2019-Sep-14 13:00N 53°44' W 000°17'0 0.0
2019-Sep-14 12:30N 53°44' W 000°17'0 0.0
2019-Sep-14 12:00N 53°44' W 000°17'0 0.0
2019-Sep-14 11:31N 53°44' W 000°17'0 0.0
2019-Sep-14 11:00N 53°44' W 000°17'0 0.0
2019-Sep-14 10:31N 53°44' W 000°17'0 0.0
2019-Sep-14 10:00N 53°44' W 000°17'0 0.0
2019-Sep-14 09:30N 53°44' W 000°17'0 0.0
2019-Sep-14 09:00N 53°44' W 000°17'0 0.0
2019-Sep-14 08:31N 53°44' W 000°17'0 0.0
2019-Sep-14 08:00N 53°44' W 000°17'0 0.0
2019-Sep-14 07:30N 53°44' W 000°17'0 0.0
2019-Sep-14 07:00N 53°44' W 000°17'1 1.1
2019-Sep-14 06:30N 53°44' W 000°16'714.7
2019-Sep-14 06:00N 53°38' W 000°09'816.7
2019-Sep-14 05:30N 53°35' E 000°04'714.5
2019-Sep-14 05:00N 53°33' E 000°16'715.1
2019-Sep-14 04:30N 53°29' E 000°27'815.1
2019-Sep-14 04:00N 53°26' E 000°39'815.2
2019-Sep-14 03:30N 53°23' E 000°50'815.9
2019-Sep-14 03:00N 53°19' E 001°02'816.8
2019-Sep-14 02:30N 53°13' E 001°11'917.6
2019-Sep-14 02:00N 53°06' E 001°21'918.2
2019-Sep-14 01:30N 52°60' E 001°32'918.4
2019-Sep-14 01:00N 52°53' E 001°42'917.8
2019-Sep-14 00:30N 52°48' E 001°55'817.0
2019-Sep-14 00:00N 52°44' E 002°07'816.2
2019-Sep-13 23:30N 52°39' E 002°18'815.8
2019-Sep-13 23:00N 52°35' E 002°29'815.6
2019-Sep-13 22:30N 52°31' E 002°40'2115.7
2019-Sep-13 21:10N 52°21' E 003°10'515.2
2019-Sep-13 20:51N 52°17' E 003°15'617.0
2019-Sep-13 20:30N 52°13' E 003°22'815.7
2019-Sep-13 20:00N 52°09' E 003°32'815.9
2019-Sep-13 19:30N 52°05' E 003°44'816.2
2019-Sep-13 19:00N 52°03' E 003°56'816.4
2019-Sep-13 18:30N 51°58' E 004°07'1 2.8
2019-Sep-13 18:00N 51°57' E 004°08'0 0.0
2019-Sep-13 17:29N 51°57' E 004°08'0 0.0
2019-Sep-13 16:58N 51°57' E 004°08'0 0.0
2019-Sep-13 16:27N 51°57' E 004°08'0 0.0
2019-Sep-13 16:00N 51°57' E 004°08'0 0.0
2019-Sep-13 15:30N 51°57' E 004°08'0 0.0
2019-Sep-13 15:00N 51°57' E 004°08'0 0.0
2019-Sep-13 14:30N 51°57' E 004°08'0 0.0
2019-Sep-13 13:59N 51°57' E 004°08'0 0.0
2019-Sep-13 13:29N 51°57' E 004°08'0 0.0
2019-Sep-13 12:59N 51°57' E 004°08'0 0.0
2019-Sep-13 12:29N 51°57' E 004°08'0 0.0
2019-Sep-13 11:58N 51°57' E 004°08'0 0.0
2019-Sep-13 11:28N 51°57' E 004°08'0 0.0
2019-Sep-13 10:58N 51°57' E 004°08'0 0.0
2019-Sep-13 10:28N 51°57' E 004°08'0 0.0
2019-Sep-13 09:58N 51°57' E 004°08'0 0.0
2019-Sep-13 09:27N 51°57' E 004°08'0 0.0
2019-Sep-13 09:00N 51°57' E 004°08'0 0.0
2019-Sep-13 08:24N 51°57' E 004°08'0 0.0
2019-Sep-13 08:00N 51°57' E 004°08'0 0.0
2019-Sep-13 07:30N 51°57' E 004°08'0 0.0
2019-Sep-13 06:56N 51°57' E 004°08'0 0.1
2019-Sep-13 06:31N 51°57' E 004°08'3 6.0
2019-Sep-13 06:00N 51°59' E 004°04'1019.0
2019-Sep-13 05:30N 52°01' E 003°50'1019.0
2019-Sep-13 05:00N 52°05' E 003°36'918.7
2019-Sep-13 04:30N 52°10' E 003°22'2320.1
2019-Sep-13 03:22N 52°25' E 002°53'821.1
2019-Sep-13 03:00N 52°30' E 002°44'2120.9
2019-Sep-13 02:00N 52°43' E 002°18'1020.1
2019-Sep-13 01:30N 52°50' E 002°05'1019.2
2019-Sep-13 01:00N 52°56' E 001°53'918.9
2019-Sep-13 00:30N 53°01' E 001°40'1019.3
2019-Sep-13 00:00N 53°07' E 001°27'1019.2
2019-Sep-12 23:30N 53°12' E 001°14'918.1
2019-Sep-12 23:00N 53°18' E 001°03'2717.3
2019-Sep-12 21:28N 53°32' E 000°24'510.0
2019-Sep-12 21:00N 53°33' E 000°16'816.2
2019-Sep-12 20:30N 53°35' E 000°03'611.2
2019-Sep-12 20:00N 53°37' W 000°05'714.7
2019-Sep-12 19:30N 53°42' W 000°14'3 5.5
2019-Sep-12 19:01N 53°44' W 000°17'0 0.0
2019-Sep-12 18:30N 53°44' W 000°17'0 0.0
2019-Sep-12 18:00N 53°44' W 000°17'0 0.0
2019-Sep-12 17:30N 53°44' W 000°17'0 0.0
2019-Sep-12 17:00N 53°44' W 000°17'0 0.0
2019-Sep-12 16:29N 53°44' W 000°17'0 0.0
2019-Sep-12 15:59N 53°44' W 000°17'0 0.0
2019-Sep-12 15:29N 53°44' W 000°17'0 0.0
2019-Sep-12 14:59N 53°44' W 000°17'0 0.0
2019-Sep-12 14:29N 53°44' W 000°17'0 0.0
2019-Sep-12 13:58N 53°44' W 000°17'0 0.0
2019-Sep-12 13:28N 53°44' W 000°17'0 0.0
2019-Sep-12 12:58N 53°44' W 000°17'0 0.0
2019-Sep-12 12:28N 53°44' W 000°17'0 0.0
2019-Sep-12 12:01N 53°44' W 000°17'0 0.0
2019-Sep-12 11:30N 53°44' W 000°17'0 0.0
2019-Sep-12 11:00N 53°44' W 000°17'0 0.0
2019-Sep-12 10:30N 53°44' W 000°17'0 0.0
2019-Sep-12 10:00N 53°44' W 000°17'0 0.0
2019-Sep-12 09:29N 53°44' W 000°17'0 0.0
2019-Sep-12 08:59N 53°44' W 000°17'0 0.0
2019-Sep-12 08:29N 53°44' W 000°17'0 0.0
2019-Sep-12 07:59N 53°44' W 000°17'0 0.0
2019-Sep-12 07:29N 53°44' W 000°17'0 0.0
2019-Sep-12 06:58N 53°44' W 000°17'0 0.0
2019-Sep-12 06:28N 53°44' W 000°17'0 0.0
2019-Sep-12 06:00N 53°44' W 000°17'1 1.1
2019-Sep-12 05:30N 53°44' W 000°16'714.5
2019-Sep-12 05:00N 53°38' W 000°09'917.6
2019-Sep-12 04:30N 53°35' E 000°05'1017.7
2019-Sep-12 03:57N 53°33' E 000°21'716.2
2019-Sep-12 03:30N 53°30' E 000°32'917.3
2019-Sep-12 03:00N 53°25' E 000°44'917.9
2019-Sep-12 02:30N 53°21' E 000°57'1019.9
2019-Sep-12 02:00N 53°13' E 001°08'1020.3
2019-Sep-12 01:30N 53°06' E 001°19'1223.2
2019-Sep-12 01:01N 52°58' E 001°33'1224.0
2019-Sep-12 00:31N 52°50' E 001°49'1223.6
2019-Sep-12 00:01N 52°44' E 002°05'1122.5
2019-Sep-11 23:30N 52°38' E 002°21'1122.2
2019-Sep-11 23:00N 52°32' E 002°36'1222.0
2019-Sep-11 22:27N 52°25' E 002°53'1021.8
2019-Sep-11 21:59N 52°19' E 003°06'1021.0
2019-Sep-11 21:30N 52°13' E 003°20'510.7
2019-Sep-11 21:00N 52°10' E 003°27'612.4
2019-Sep-11 20:30N 52°07' E 003°36'714.5
2019-Sep-11 20:00N 52°05' E 003°47'510.3
2019-Sep-11 19:31N 52°04' E 003°55'4 7.5
2019-Sep-11 19:00N 52°01' E 003°59'713.1
2019-Sep-11 18:30N 51°57' E 004°08'0 0.9
2019-Sep-11 17:59N 51°57' E 004°08'0 0.0
2019-Sep-11 17:29N 51°57' E 004°08'0 0.0
2019-Sep-11 16:59N 51°57' E 004°08'0 0.0
2019-Sep-11 16:29N 51°57' E 004°08'0 0.0
2019-Sep-11 15:58N 51°57' E 004°08'0 0.0
2019-Sep-11 15:28N 51°57' E 004°08'0 0.0
2019-Sep-11 14:58N 51°57' E 004°08'0 0.0
2019-Sep-11 14:28N 51°57' E 004°08'0 0.0
2019-Sep-11 13:58N 51°57' E 004°08'0 0.0
2019-Sep-11 13:30N 51°57' E 004°08'0 0.0
2019-Sep-11 13:00N 51°57' E 004°08'0 0.0
2019-Sep-11 12:30N 51°57' E 004°08'0 0.0
2019-Sep-11 12:00N 51°57' E 004°08'0 0.0
2019-Sep-11 11:30N 51°57' E 004°08'0 0.0
2019-Sep-11 10:59N 51°57' E 004°08'0 0.0
2019-Sep-11 10:29N 51°57' E 004°08'0 0.0
2019-Sep-11 09:59N 51°57' E 004°08'0 0.0
2019-Sep-11 09:29N 51°57' E 004°08'0 0.0
2019-Sep-11 09:00N 51°57' E 004°08'0 0.0
2019-Sep-11 08:30N 51°57' E 004°08'0 0.0
2019-Sep-11 07:58N 51°57' E 004°08'0 0.0
2019-Sep-11 07:28N 51°57' E 004°08'0 0.0
2019-Sep-11 06:58N 51°57' E 004°08'0 0.0
2019-Sep-11 06:30N 51°57' E 004°08'2 4.3
2019-Sep-11 06:00N 51°58' E 004°06'816.9
2019-Sep-11 05:31N 52°01' E 003°53'917.8
2019-Sep-11 05:00N 52°04' E 003°39'917.5
2019-Sep-11 04:30N 52°09' E 003°27'1418.1
2019-Sep-11 03:43N 52°18' E 003°09'919.4
2019-Sep-11 03:15N 52°23' E 002°57'519.3
2019-Sep-11 03:00N 52°26' E 002°51'1019.2
2019-Sep-11 02:30N 52°32' E 002°38'918.9
2019-Sep-11 02:01N 52°38' E 002°27'919.0
2019-Sep-11 01:31N 52°44' E 002°15'918.6
2019-Sep-11 01:00N 52°51' E 002°05'918.4
2019-Sep-11 00:30N 52°57' E 001°53'918.4
2019-Sep-11 00:00N 53°02' E 001°40'918.0
2019-Sep-10 23:30N 53°07' E 001°28'917.9
2019-Sep-10 23:00N 53°12' E 001°15'917.9
2019-Sep-10 22:30N 53°18' E 001°03'917.2
2019-Sep-10 22:00N 53°23' E 000°51'917.3
2019-Sep-10 21:30N 53°26' E 000°38'916.9
2019-Sep-10 21:00N 53°31' E 000°26'816.2
2019-Sep-10 20:31N 53°33' E 000°13'918.3
2019-Sep-10 20:00N 53°36' W 000°02'714.4
2019-Sep-10 19:30N 53°39' W 000°12'611.1
2019-Sep-10 18:59N 53°44' W 000°17'0 0.0
2019-Sep-10 18:26N 53°44' W 000°17'0 0.0
2019-Sep-10 17:58N 53°44' W 000°17'0 0.0
2019-Sep-10 17:28N 53°44' W 000°17'0 0.0
2019-Sep-10 16:58N 53°44' W 000°17'0 0.0
2019-Sep-10 16:28N 53°44' W 000°17'0 0.0
2019-Sep-10 15:58N 53°44' W 000°17'0 0.0
2019-Sep-10 15:30N 53°44' W 000°17'0 0.0
2019-Sep-10 15:00N 53°44' W 000°17'0 0.0
2019-Sep-10 14:30N 53°44' W 000°17'0 0.0
2019-Sep-10 14:00N 53°44' W 000°17'0 0.0
2019-Sep-10 13:30N 53°44' W 000°17'0 0.0
2019-Sep-10 12:59N 53°44' W 000°17'0 0.0
2019-Sep-10 12:29N 53°44' W 000°17'0 0.0
2019-Sep-10 11:59N 53°44' W 000°17'0 0.0
2019-Sep-10 11:29N 53°44' W 000°17'0 0.0
2019-Sep-10 10:58N 53°44' W 000°17'0 0.0
2019-Sep-10 10:28N 53°44' W 000°17'0 0.0
2019-Sep-10 09:58N 53°44' W 000°17'0 0.0
2019-Sep-10 09:28N 53°44' W 000°17'0 0.0
2019-Sep-10 08:58N 53°44' W 000°17'0 0.0
2019-Sep-10 08:30N 53°44' W 000°17'0 0.0
2019-Sep-10 08:00N 53°44' W 000°17'0 0.0
2019-Sep-10 07:30N 53°44' W 000°17'0 0.0
2019-Sep-10 07:00N 53°44' W 000°17'0 0.0
2019-Sep-10 06:30N 53°44' W 000°17'0 0.0
2019-Sep-10 06:00N 53°44' W 000°17'2 3.3
2019-Sep-10 05:30N 53°43' W 000°15'612.5
2019-Sep-10 05:00N 53°38' W 000°09'714.8
2019-Sep-10 04:30N 53°35' E 000°02'816.4
2019-Sep-10 04:00N 53°33' E 000°15'1617.2
2019-Sep-10 03:05N 53°26' E 000°39'217.7
2019-Sep-10 02:59N 53°25' E 000°42'918.0
2019-Sep-10 02:30N 53°22' E 000°56'918.1
2019-Sep-10 02:00N 53°16' E 001°07'918.6
2019-Sep-10 01:30N 53°09' E 001°17'1019.2
2019-Sep-10 01:00N 53°01' E 001°27'1019.2
2019-Sep-10 00:30N 52°55' E 001°39'1019.7
2019-Sep-10 00:00N 52°49' E 001°52'1019.6
2019-Sep-09 23:30N 52°44' E 002°06'1019.2
2019-Sep-09 23:00N 52°39' E 002°19'1018.9
2019-Sep-09 22:30N 52°34' E 002°32'3318.3
2019-Sep-09 20:43N 52°16' E 003°17'417.8
2019-Sep-09 20:29N 52°13' E 003°23'917.7
2019-Sep-09 20:00N 52°08' E 003°34'917.8
2019-Sep-09 19:30N 52°04' E 003°46'918.1
2019-Sep-09 19:00N 52°00' E 003°60'611.7
2019-Sep-09 18:30N 51°57' E 004°08'0 0.4
2019-Sep-09 18:00N 51°57' E 004°08'0 0.0
2019-Sep-09 17:30N 51°57' E 004°08'0 0.0
2019-Sep-09 17:00N 51°57' E 004°08'0 0.0
2019-Sep-09 16:26N 51°57' E 004°08'0 0.0
2019-Sep-09 15:59N 51°57' E 004°08'0 0.0
2019-Sep-09 15:29N 51°57' E 004°08'0 0.0
2019-Sep-09 14:59N 51°57' E 004°08'0 0.0
2019-Sep-09 14:29N 51°57' E 004°08'0 0.0
2019-Sep-09 13:58N 51°57' E 004°08'0 0.0
2019-Sep-09 13:28N 51°57' E 004°08'0 0.0
2019-Sep-09 12:58N 51°57' E 004°08'0 0.0
2019-Sep-09 12:28N 51°57' E 004°08'0 0.0
2019-Sep-09 11:58N 51°57' E 004°08'0 0.0
2019-Sep-09 11:30N 51°57' E 004°08'0 0.0
2019-Sep-09 11:00N 51°57' E 004°08'0 0.0
2019-Sep-09 10:30N 51°57' E 004°08'0 0.0
2019-Sep-09 10:00N 51°57' E 004°08'0 0.0
2019-Sep-09 09:29N 51°57' E 004°08'0 0.0
2019-Sep-09 08:59N 51°57' E 004°08'0 0.0
2019-Sep-09 08:29N 51°57' E 004°08'0 0.0
2019-Sep-09 07:59N 51°57' E 004°08'0 0.0
2019-Sep-09 07:29N 51°57' E 004°08'0 0.0
2019-Sep-09 06:55N 51°57' E 004°08'0 0.0
2019-Sep-09 06:31N 51°57' E 004°08'2 3.9
2019-Sep-09 06:00N 51°58' E 004°06'918.2
2019-Sep-09 05:30N 52°01' E 003°52'1019.7
2019-Sep-09 05:00N 52°05' E 003°37'1019.8
2019-Sep-09 04:29N 52°09' E 003°22'2820.3
2019-Sep-09 03:06N 52°27' E 002°46'220.3
2019-Sep-09 03:00N 52°28' E 002°43'2020.0
2019-Sep-09 02:00N 52°39' E 002°17'1019.7
2019-Sep-09 01:30N 52°44' E 002°03'1019.7
2019-Sep-09 01:00N 52°49' E 001°49'1019.1
2019-Sep-09 00:30N 52°54' E 001°35'918.7
2019-Sep-09 00:00N 52°58' E 001°21'918.3
2019-Sep-08 23:30N 53°01' E 001°07'917.9
2019-Sep-08 23:00N 53°07' E 000°56'2817.7
2019-Sep-08 21:26N 53°29' E 000°28'614.9
2019-Sep-08 21:00N 53°32' E 000°18'816.1
2019-Sep-08 20:30N 53°34' E 000°05'816.2
2019-Sep-08 20:00N 53°37' W 000°08'612.2
2019-Sep-08 19:30N 53°42' W 000°14'3 5.2
2019-Sep-08 19:00N 53°44' W 000°17'0 0.0
2019-Sep-08 18:30N 53°44' W 000°17'0 0.0
2019-Sep-08 17:57N 53°44' W 000°17'0 0.0
2019-Sep-08 17:30N 53°44' W 000°17'0 0.0
2019-Sep-08 17:00N 53°44' W 000°17'0 0.0
2019-Sep-08 16:29N 53°44' W 000°17'0 0.0
2019-Sep-08 15:59N 53°44' W 000°17'0 0.0
2019-Sep-08 15:29N 53°44' W 000°17'0 0.0
2019-Sep-08 14:59N 53°44' W 000°17'0 0.0
2019-Sep-08 14:29N 53°44' W 000°17'0 0.0
2019-Sep-08 13:58N 53°44' W 000°17'0 0.0
2019-Sep-08 13:28N 53°44' W 000°17'0 0.0
2019-Sep-08 12:58N 53°44' W 000°17'0 0.0
2019-Sep-08 12:28N 53°44' W 000°17'0 0.0
2019-Sep-08 12:00N 53°44' W 000°17'0 0.0
2019-Sep-08 11:30N 53°44' W 000°17'0 0.0
2019-Sep-08 11:00N 53°44' W 000°17'0 0.0
2019-Sep-08 10:30N 53°44' W 000°17'0 0.0
2019-Sep-08 10:00N 53°44' W 000°17'0 0.0
2019-Sep-08 09:29N 53°44' W 000°17'0 0.0
2019-Sep-08 08:59N 53°44' W 000°17'0 0.0
2019-Sep-08 08:29N 53°44' W 000°17'0 0.0
2019-Sep-08 07:59N 53°44' W 000°17'0 0.0
2019-Sep-08 07:28N 53°44' W 000°17'0 0.0
2019-Sep-08 07:00N 53°44' W 000°17'1 1.3
2019-Sep-08 06:30N 53°44' W 000°16'511.0
2019-Sep-08 06:00N 53°39' W 000°12'612.3
2019-Sep-08 05:30N 53°36' W 000°03'815.3
2019-Sep-08 05:00N 53°33' E 000°09'815.8
2019-Sep-08 04:30N 53°33' E 000°23'1216.7
2019-Sep-08 03:48N 53°27' E 000°39'516.5
2019-Sep-08 03:30N 53°25' E 000°46'816.5
2019-Sep-08 03:00N 53°21' E 000°58'816.7
2019-Sep-08 02:30N 53°15' E 001°08'816.3
2019-Sep-08 02:01N 53°09' E 001°17'816.4
2019-Sep-08 01:30N 53°03' E 001°26'816.3
2019-Sep-08 01:00N 52°57' E 001°36'917.5
2019-Sep-08 00:31N 52°51' E 001°47'918.3
2019-Sep-08 00:00N 52°46' E 001°59'918.6
2019-Sep-07 23:30N 52°41' E 002°12'918.6
2019-Sep-07 23:01N 52°36' E 002°25'918.3
2019-Sep-07 22:31N 52°31' E 002°38'918.2
2019-Sep-07 22:00N 52°26' E 002°51'1717.9
2019-Sep-07 21:04N 52°18' E 003°14'218.1
2019-Sep-07 20:58N 52°17' E 003°16'817.8
2019-Sep-07 20:30N 52°11' E 003°27'713.9
2019-Sep-07 20:00N 52°07' E 003°37'511.2
2019-Sep-07 19:30N 52°05' E 003°45'611.3
2019-Sep-07 19:00N 52°03' E 003°54'612.4
2019-Sep-07 18:31N 51°60' E 004°02'5 9.6
2019-Sep-07 18:01N 51°57' E 004°08'0 0.3
2019-Sep-07 17:29N 51°57' E 004°08'0 0.0
2019-Sep-07 16:59N 51°57' E 004°08'0 0.0
2019-Sep-07 16:29N 51°57' E 004°08'0 0.0
2019-Sep-07 15:58N 51°57' E 004°08'0 0.0
2019-Sep-07 15:25N 51°57' E 004°08'0 0.0
2019-Sep-07 14:58N 51°57' E 004°08'0 0.0
2019-Sep-07 14:28N 51°57' E 004°08'0 0.0
2019-Sep-07 14:00N 51°57' E 004°08'3 6.3
2019-Sep-07 13:31N 51°59' E 004°04'611.9
2019-Sep-07 13:00N 51°56' E 004°13'611.2
2019-Sep-07 12:30N 51°54' E 004°21'4 9.0
2019-Sep-07 12:00N 51°54' E 004°28'0 0.7
2019-Sep-07 11:30N 51°54' E 004°29'1 1.7
2019-Sep-07 11:00N 51°54' E 004°28'4 7.9
2019-Sep-07 10:30N 51°54' E 004°21'4 8.8
2019-Sep-07 10:00N 51°55' E 004°14'510.2
2019-Sep-07 09:30N 51°58' E 004°08'1 1.9
2019-Sep-07 09:00N 51°57' E 004°08'1 1.4
2019-Sep-07 08:30N 51°57' E 004°08'  
Track history (hours):
 
Tides and Currents Weather Stations Pressure Air Temp Water Temp Dewpoint Dewpoint Depression Visibility Wind Speed Wind Dir Waves Ship Positions

Pride Of Rotterdam

Operator: P&O Ferries

Last reported at 2019-Sep-17 08:29 UTC. Time now 2019-Sep-17 08:53 UTC.
Position N 51°57' E 004°08'.

Length 214 m; draft 5.8 m.

Type: Ship. MMSI: 244980000.

Date/timePositionNaut miles runAvg speedWind from/ knotsBaromVisibWave heightAir tempDewpointWater temp
2019-Sep-17 08:29N 51°57' E 004°08'0 0.0
2019-Sep-17 07:59N 51°57' E 004°08'0 0.0
2019-Sep-17 07:29N 51°57' E 004°08'0 0.0
2019-Sep-17 06:58N 51°57' E 004°08'0 0.0
2019-Sep-17 06:30N 51°57' E 004°08'2 3.2
2019-Sep-17 06:00N 51°58' E 004°07'815.7
2019-Sep-17 05:30N 52°01' E 003°55'917.9
2019-Sep-17 05:00N 52°04' E 003°41'917.8
2019-Sep-17 04:29N 52°08' E 003°28'817.1
2019-Sep-17 04:00N 52°13' E 003°17'917.4
2019-Sep-17 03:28N 52°19' E 003°05'917.6
2019-Sep-17 02:56N 52°25' E 002°53'818.0
2019-Sep-17 02:30N 52°29' E 002°43'917.8
2019-Sep-17 02:00N 52°35' E 002°32'918.1
2019-Sep-17 01:30N 52°41' E 002°21'918.8
2019-Sep-17 01:00N 52°48' E 002°10'918.6
2019-Sep-17 00:31N 52°54' E 001°59'918.3
2019-Sep-17 00:00N 52°59' E 001°46'918.6
2019-Sep-16 23:30N 53°04' E 001°33'918.9
2019-Sep-16 23:00N 53°10' E 001°21'919.0
2019-Sep-16 22:30N 53°16' E 001°08'2218.4
2019-Sep-16 21:19N 53°26' E 000°36'618.1
2019-Sep-16 21:00N 53°28' E 000°27'917.5
2019-Sep-16 20:30N 53°32' E 000°14'918.8
2019-Sep-16 20:00N 53°35' W 000°01'816.5
2019-Sep-16 19:30N 53°40' W 000°13'510.0
2019-Sep-16 19:00N 53°44' W 000°17'0 0.0
2019-Sep-16 18:29N 53°44' W 000°17'0 0.0
2019-Sep-16 17:59N 53°44' W 000°17'0 0.0
2019-Sep-16 17:29N 53°44' W 000°17'0 0.0
2019-Sep-16 16:59N 53°44' W 000°17'0 0.0
2019-Sep-16 16:29N 53°44' W 000°17'0 0.0
2019-Sep-16 15:58N 53°44' W 000°17'0 0.0
2019-Sep-16 15:28N 53°44' W 000°17'0 0.0
2019-Sep-16 14:58N 53°44' W 000°17'0 0.0
2019-Sep-16 14:28N 53°44' W 000°17'0 0.0
2019-Sep-16 14:00N 53°44' W 000°17'0 0.0
2019-Sep-16 13:30N 53°44' W 000°17'0 0.0
2019-Sep-16 13:00N 53°44' W 000°17'0 0.0
2019-Sep-16 12:30N 53°44' W 000°17'0 0.0
2019-Sep-16 12:00N 53°44' W 000°17'0 0.0
2019-Sep-16 11:29N 53°44' W 000°17'0 0.0
2019-Sep-16 10:59N 53°44' W 000°17'0 0.0
2019-Sep-16 10:29N 53°44' W 000°17'0 0.0
2019-Sep-16 09:59N 53°44' W 000°17'0 0.0
2019-Sep-16 09:29N 53°44' W 000°17'0 0.0
2019-Sep-16 08:58N 53°44' W 000°17'0 0.0
2019-Sep-16 08:28N 53°44' W 000°17'0 0.0
2019-Sep-16 07:58N 53°44' W 000°17'0 0.0
2019-Sep-16 07:28N 53°44' W 000°17'0 0.0
2019-Sep-16 07:00N 53°44' W 000°17'0 0.0
2019-Sep-16 06:30N 53°44' W 000°17'0 0.0
2019-Sep-16 06:00N 53°44' W 000°17'2 3.6
2019-Sep-16 05:30N 53°43' W 000°15'917.4
2019-Sep-16 05:00N 53°37' W 000°05'918.8
2019-Sep-16 04:31N 53°33' E 000°10'814.9
2019-Sep-16 04:00N 53°30' E 000°22'1015.1
2019-Sep-16 03:19N 53°26' E 000°38'516.0
2019-Sep-16 03:00N 53°24' E 000°45'917.1
2019-Sep-16 02:31N 53°21' E 000°58'917.7
2019-Sep-16 02:01N 53°14' E 001°09'918.4
2019-Sep-16 01:31N 53°08' E 001°19'918.5
2019-Sep-16 01:01N 53°01' E 001°30'918.8
2019-Sep-16 00:30N 52°54' E 001°41'918.6
2019-Sep-16 00:00N 52°48' E 001°53'917.8
2019-Sep-15 23:30N 52°43' E 002°05'816.9
2019-Sep-15 23:00N 52°39' E 002°17'816.2
2019-Sep-15 22:30N 52°35' E 002°28'916.4
2019-Sep-15 21:57N 52°29' E 002°40'2116.7
2019-Sep-15 20:43N 52°18' E 003°09'416.8
2019-Sep-15 20:29N 52°16' E 003°14'816.6
2019-Sep-15 20:00N 52°11' E 003°24'917.2
2019-Sep-15 19:30N 52°07' E 003°37'917.3
2019-Sep-15 19:01N 52°04' E 003°50'611.1
2019-Sep-15 18:31N 52°02' E 003°58'713.1
2019-Sep-15 18:01N 51°58' E 004°07'2 3.2
2019-Sep-15 17:30N 51°57' E 004°08'0 0.0
2019-Sep-15 16:59N 51°57' E 004°08'0 0.0
2019-Sep-15 16:29N 51°57' E 004°08'0 0.0
2019-Sep-15 15:59N 51°57' E 004°08'0 0.0
2019-Sep-15 15:29N 51°57' E 004°08'0 0.0
2019-Sep-15 14:58N 51°57' E 004°08'0 0.0
2019-Sep-15 14:28N 51°57' E 004°08'0 0.0
2019-Sep-15 13:58N 51°57' E 004°08'0 0.0
2019-Sep-15 13:28N 51°57' E 004°08'0 0.0
2019-Sep-15 12:58N 51°57' E 004°08'0 0.0
2019-Sep-15 12:30N 51°57' E 004°08'0 0.0
2019-Sep-15 12:00N 51°57' E 004°08'0 0.0
2019-Sep-15 11:30N 51°57' E 004°08'0 0.0
2019-Sep-15 11:00N 51°57' E 004°08'0 0.0
2019-Sep-15 10:30N 51°57' E 004°08'0 0.0
2019-Sep-15 09:59N 51°57' E 004°08'0 0.0
2019-Sep-15 09:29N 51°57' E 004°08'0 0.0
2019-Sep-15 08:59N 51°57' E 004°08'0 0.0
2019-Sep-15 08:29N 51°57' E 004°08'0 0.0
2019-Sep-15 07:55N 51°57' E 004°08'0 0.0
2019-Sep-15 07:28N 51°57' E 004°08'0 0.0
2019-Sep-15 07:01N 51°57' E 004°08'2 4.0
2019-Sep-15 06:30N 51°58' E 004°06'815.5
2019-Sep-15 06:00N 52°00' E 003°54'713.5
2019-Sep-15 05:30N 52°02' E 003°43'816.4
2019-Sep-15 05:00N 52°06' E 003°32'816.3
2019-Sep-15 04:31N 52°10' E 003°21'816.0
2019-Sep-15 04:01N 52°15' E 003°10'816.4
2019-Sep-15 03:30N 52°21' E 003°00'816.5
2019-Sep-15 03:01N 52°26' E 002°50'816.4
2019-Sep-15 02:30N 52°31' E 002°39'816.3
2019-Sep-15 02:01N 52°36' E 002°29'816.3
2019-Sep-15 01:31N 52°42' E 002°19'815.7
2019-Sep-15 01:00N 52°48' E 002°10'815.5
2019-Sep-15 00:31N 52°53' E 002°01'815.8
2019-Sep-15 00:01N 52°57' E 001°50'816.0
2019-Sep-14 23:31N 53°02' E 001°39'816.3
2019-Sep-14 23:01N 53°07' E 001°28'917.0
2019-Sep-14 22:31N 53°12' E 001°17'917.6
2019-Sep-14 22:01N 53°17' E 001°05'917.7
2019-Sep-14 21:30N 53°22' E 000°53'917.4
2019-Sep-14 20:59N 53°27' E 000°40'817.2
2019-Sep-14 20:30N 53°31' E 000°28'817.0
2019-Sep-14 20:00N 53°33' E 000°14'918.4
2019-Sep-14 19:30N 53°35' W 000°01'816.9
2019-Sep-14 19:01N 53°40' W 000°13'5 9.6
2019-Sep-14 18:30N 53°44' W 000°17'0 0.0
2019-Sep-14 18:00N 53°44' W 000°17'0 0.0
2019-Sep-14 17:30N 53°44' W 000°17'0 0.0
2019-Sep-14 17:01N 53°44' W 000°17'0 0.0
2019-Sep-14 16:30N 53°44' W 000°17'0 0.0
2019-Sep-14 16:00N 53°44' W 000°17'0 0.0
2019-Sep-14 15:30N 53°44' W 000°17'0 0.0
2019-Sep-14 15:00N 53°44' W 000°17'0 0.0
2019-Sep-14 14:30N 53°44' W 000°17'0 0.0
2019-Sep-14 14:00N 53°44' W 000°17'0 0.0
2019-Sep-14 13:30N 53°44' W 000°17'0 0.0
2019-Sep-14 13:00N 53°44' W 000°17'0 0.0
2019-Sep-14 12:30N 53°44' W 000°17'0 0.0
2019-Sep-14 12:00N 53°44' W 000°17'0 0.0
2019-Sep-14 11:31N 53°44' W 000°17'0 0.0
2019-Sep-14 11:00N 53°44' W 000°17'0 0.0
2019-Sep-14 10:31N 53°44' W 000°17'0 0.0
2019-Sep-14 10:00N 53°44' W 000°17'0 0.0
2019-Sep-14 09:30N 53°44' W 000°17'0 0.0
2019-Sep-14 09:00N 53°44' W 000°17'0 0.0
2019-Sep-14 08:31N 53°44' W 000°17'0 0.0
2019-Sep-14 08:00N 53°44' W 000°17'0 0.0
2019-Sep-14 07:30N 53°44' W 000°17'0 0.0
2019-Sep-14 07:00N 53°44' W 000°17'1 1.1
2019-Sep-14 06:30N 53°44' W 000°16'714.7
2019-Sep-14 06:00N 53°38' W 000°09'816.7
2019-Sep-14 05:30N 53°35' E 000°04'714.5
2019-Sep-14 05:00N 53°33' E 000°16'715.1
2019-Sep-14 04:30N 53°29' E 000°27'815.1
2019-Sep-14 04:00N 53°26' E 000°39'815.2
2019-Sep-14 03:30N 53°23' E 000°50'815.9
2019-Sep-14 03:00N 53°19' E 001°02'816.8
2019-Sep-14 02:30N 53°13' E 001°11'917.6
2019-Sep-14 02:00N 53°06' E 001°21'918.2
2019-Sep-14 01:30N 52°60' E 001°32'918.4
2019-Sep-14 01:00N 52°53' E 001°42'917.8
2019-Sep-14 00:30N 52°48' E 001°55'817.0
2019-Sep-14 00:00N 52°44' E 002°07'816.2
2019-Sep-13 23:30N 52°39' E 002°18'815.8
2019-Sep-13 23:00N 52°35' E 002°29'815.6
2019-Sep-13 22:30N 52°31' E 002°40'2115.7
2019-Sep-13 21:10N 52°21' E 003°10'515.2
2019-Sep-13 20:51N 52°17' E 003°15'617.0
2019-Sep-13 20:30N 52°13' E 003°22'815.7
2019-Sep-13 20:00N 52°09' E 003°32'815.9
2019-Sep-13 19:30N 52°05' E 003°44'816.2
2019-Sep-13 19:00N 52°03' E 003°56'816.4
2019-Sep-13 18:30N 51°58' E 004°07'1 2.8
2019-Sep-13 18:00N 51°57' E 004°08'0 0.0
2019-Sep-13 17:29N 51°57' E 004°08'0 0.0
2019-Sep-13 16:58N 51°57' E 004°08'0 0.0
2019-Sep-13 16:27N 51°57' E 004°08'0 0.0
2019-Sep-13 16:00N 51°57' E 004°08'0 0.0
2019-Sep-13 15:30N 51°57' E 004°08'0 0.0
2019-Sep-13 15:00N 51°57' E 004°08'0 0.0
2019-Sep-13 14:30N 51°57' E 004°08'0 0.0
2019-Sep-13 13:59N 51°57' E 004°08'0 0.0
2019-Sep-13 13:29N 51°57' E 004°08'0 0.0
2019-Sep-13 12:59N 51°57' E 004°08'0 0.0
2019-Sep-13 12:29N 51°57' E 004°08'0 0.0
2019-Sep-13 11:58N 51°57' E 004°08'0 0.0
2019-Sep-13 11:28N 51°57' E 004°08'0 0.0
2019-Sep-13 10:58N 51°57' E 004°08'0 0.0
2019-Sep-13 10:28N 51°57' E 004°08'0 0.0
2019-Sep-13 09:58N 51°57' E 004°08'0 0.0
2019-Sep-13 09:27N 51°57' E 004°08'0 0.0
2019-Sep-13 09:00N 51°57' E 004°08'0 0.0
2019-Sep-13 08:24N 51°57' E 004°08'0 0.0
2019-Sep-13 08:00N 51°57' E 004°08'0 0.0
2019-Sep-13 07:30N 51°57' E 004°08'0 0.0
2019-Sep-13 06:56N 51°57' E 004°08'0 0.1
2019-Sep-13 06:31N 51°57' E 004°08'3 6.0
2019-Sep-13 06:00N 51°59' E 004°04'1019.0
2019-Sep-13 05:30N 52°01' E 003°50'1019.0
2019-Sep-13 05:00N 52°05' E 003°36'918.7
2019-Sep-13 04:30N 52°10' E 003°22'2320.1
2019-Sep-13 03:22N 52°25' E 002°53'821.1
2019-Sep-13 03:00N 52°30' E 002°44'2120.9
2019-Sep-13 02:00N 52°43' E 002°18'1020.1
2019-Sep-13 01:30N 52°50' E 002°05'1019.2
2019-Sep-13 01:00N 52°56' E 001°53'918.9
2019-Sep-13 00:30N 53°01' E 001°40'1019.3
2019-Sep-13 00:00N 53°07' E 001°27'1019.2
2019-Sep-12 23:30N 53°12' E 001°14'918.1
2019-Sep-12 23:00N 53°18' E 001°03'2717.3
2019-Sep-12 21:28N 53°32' E 000°24'510.0
2019-Sep-12 21:00N 53°33' E 000°16'816.2
2019-Sep-12 20:30N 53°35' E 000°03'611.2
2019-Sep-12 20:00N 53°37' W 000°05'714.7
2019-Sep-12 19:30N 53°42' W 000°14'3 5.5
2019-Sep-12 19:01N 53°44' W 000°17'0 0.0
2019-Sep-12 18:30N 53°44' W 000°17'0 0.0
2019-Sep-12 18:00N 53°44' W 000°17'0 0.0
2019-Sep-12 17:30N 53°44' W 000°17'0 0.0
2019-Sep-12 17:00N 53°44' W 000°17'0 0.0
2019-Sep-12 16:29N 53°44' W 000°17'0 0.0
2019-Sep-12 15:59N 53°44' W 000°17'0 0.0
2019-Sep-12 15:29N 53°44' W 000°17'0 0.0
2019-Sep-12 14:59N 53°44' W 000°17'0 0.0
2019-Sep-12 14:29N 53°44' W 000°17'0 0.0
2019-Sep-12 13:58N 53°44' W 000°17'0 0.0
2019-Sep-12 13:28N 53°44' W 000°17'0 0.0
2019-Sep-12 12:58N 53°44' W 000°17'0 0.0
2019-Sep-12 12:28N 53°44' W 000°17'0 0.0
2019-Sep-12 12:01N 53°44' W 000°17'0 0.0
2019-Sep-12 11:30N 53°44' W 000°17'0 0.0
2019-Sep-12 11:00N 53°44' W 000°17'0 0.0
2019-Sep-12 10:30N 53°44' W 000°17'0 0.0
2019-Sep-12 10:00N 53°44' W 000°17'0 0.0
2019-Sep-12 09:29N 53°44' W 000°17'0 0.0
2019-Sep-12 08:59N 53°44' W 000°17'0 0.0
2019-Sep-12 08:29N 53°44' W 000°17'0 0.0
2019-Sep-12 07:59N 53°44' W 000°17'0 0.0
2019-Sep-12 07:29N 53°44' W 000°17'0 0.0
2019-Sep-12 06:58N 53°44' W 000°17'0 0.0
2019-Sep-12 06:28N 53°44' W 000°17'0 0.0
2019-Sep-12 06:00N 53°44' W 000°17'1 1.1
2019-Sep-12 05:30N 53°44' W 000°16'714.5
2019-Sep-12 05:00N 53°38' W 000°09'917.6
2019-Sep-12 04:30N 53°35' E 000°05'1017.7
2019-Sep-12 03:57N 53°33' E 000°21'716.2
2019-Sep-12 03:30N 53°30' E 000°32'917.3
2019-Sep-12 03:00N 53°25' E 000°44'917.9
2019-Sep-12 02:30N 53°21' E 000°57'1019.9
2019-Sep-12 02:00N 53°13' E 001°08'1020.3
2019-Sep-12 01:30N 53°06' E 001°19'1223.2
2019-Sep-12 01:01N 52°58' E 001°33'1224.0
2019-Sep-12 00:31N 52°50' E 001°49'1223.6
2019-Sep-12 00:01N 52°44' E 002°05'1122.5
2019-Sep-11 23:30N 52°38' E 002°21'1122.2
2019-Sep-11 23:00N 52°32' E 002°36'1222.0
2019-Sep-11 22:27N 52°25' E 002°53'1021.8
2019-Sep-11 21:59N 52°19' E 003°06'1021.0
2019-Sep-11 21:30N 52°13' E 003°20'510.7
2019-Sep-11 21:00N 52°10' E 003°27'612.4
2019-Sep-11 20:30N 52°07' E 003°36'714.5
2019-Sep-11 20:00N 52°05' E 003°47'510.3
2019-Sep-11 19:31N 52°04' E 003°55'4 7.5
2019-Sep-11 19:00N 52°01' E 003°59'713.1
2019-Sep-11 18:30N 51°57' E 004°08'0 0.9
2019-Sep-11 17:59N 51°57' E 004°08'0 0.0
2019-Sep-11 17:29N 51°57' E 004°08'0 0.0
2019-Sep-11 16:59N 51°57' E 004°08'0 0.0
2019-Sep-11 16:29N 51°57' E 004°08'0 0.0
2019-Sep-11 15:58N 51°57' E 004°08'0 0.0
2019-Sep-11 15:28N 51°57' E 004°08'0 0.0
2019-Sep-11 14:58N 51°57' E 004°08'0 0.0
2019-Sep-11 14:28N 51°57' E 004°08'0 0.0
2019-Sep-11 13:58N 51°57' E 004°08'0 0.0
2019-Sep-11 13:30N 51°57' E 004°08'0 0.0
2019-Sep-11 13:00N 51°57' E 004°08'0 0.0
2019-Sep-11 12:30N 51°57' E 004°08'0 0.0
2019-Sep-11 12:00N 51°57' E 004°08'0 0.0
2019-Sep-11 11:30N 51°57' E 004°08'0 0.0
2019-Sep-11 10:59N 51°57' E 004°08'0 0.0
2019-Sep-11 10:29N 51°57' E 004°08'0 0.0
2019-Sep-11 09:59N 51°57' E 004°08'0 0.0
2019-Sep-11 09:29N 51°57' E 004°08'0 0.0
2019-Sep-11 09:00N 51°57' E 004°08'0 0.0
2019-Sep-11 08:30N 51°57' E 004°08'0 0.0
2019-Sep-11 07:58N 51°57' E 004°08'0 0.0
2019-Sep-11 07:28N 51°57' E 004°08'0 0.0
2019-Sep-11 06:58N 51°57' E 004°08'0 0.0
2019-Sep-11 06:30N 51°57' E 004°08'2 4.3
2019-Sep-11 06:00N 51°58' E 004°06'816.9
2019-Sep-11 05:31N 52°01' E 003°53'917.8
2019-Sep-11 05:00N 52°04' E 003°39'917.5
2019-Sep-11 04:30N 52°09' E 003°27'1418.1
2019-Sep-11 03:43N 52°18' E 003°09'919.4
2019-Sep-11 03:15N 52°23' E 002°57'519.3
2019-Sep-11 03:00N 52°26' E 002°51'1019.2
2019-Sep-11 02:30N 52°32' E 002°38'918.9
2019-Sep-11 02:01N 52°38' E 002°27'919.0
2019-Sep-11 01:31N 52°44' E 002°15'918.6
2019-Sep-11 01:00N 52°51' E 002°05'918.4
2019-Sep-11 00:30N 52°57' E 001°53'918.4
2019-Sep-11 00:00N 53°02' E 001°40'918.0
2019-Sep-10 23:30N 53°07' E 001°28'917.9
2019-Sep-10 23:00N 53°12' E 001°15'917.9
2019-Sep-10 22:30N 53°18' E 001°03'917.2
2019-Sep-10 22:00N 53°23' E 000°51'917.3
2019-Sep-10 21:30N 53°26' E 000°38'916.9
2019-Sep-10 21:00N 53°31' E 000°26'816.2
2019-Sep-10 20:31N 53°33' E 000°13'918.3
2019-Sep-10 20:00N 53°36' W 000°02'714.4
2019-Sep-10 19:30N 53°39' W 000°12'611.1
2019-Sep-10 18:59N 53°44' W 000°17'0 0.0
2019-Sep-10 18:26N 53°44' W 000°17'0 0.0
2019-Sep-10 17:58N 53°44' W 000°17'0 0.0
2019-Sep-10 17:28N 53°44' W 000°17'0 0.0
2019-Sep-10 16:58N 53°44' W 000°17'0 0.0
2019-Sep-10 16:28N 53°44' W 000°17'0 0.0
2019-Sep-10 15:58N 53°44' W 000°17'0 0.0
2019-Sep-10 15:30N 53°44' W 000°17'0 0.0
2019-Sep-10 15:00N 53°44' W 000°17'0 0.0
2019-Sep-10 14:30N 53°44' W 000°17'0 0.0
2019-Sep-10 14:00N 53°44' W 000°17'0 0.0
2019-Sep-10 13:30N 53°44' W 000°17'0 0.0
2019-Sep-10 12:59N 53°44' W 000°17'0 0.0
2019-Sep-10 12:29N 53°44' W 000°17'0 0.0
2019-Sep-10 11:59N 53°44' W 000°17'0 0.0
2019-Sep-10 11:29N 53°44' W 000°17'0 0.0
2019-Sep-10 10:58N 53°44' W 000°17'0 0.0
2019-Sep-10 10:28N 53°44' W 000°17'0 0.0
2019-Sep-10 09:58N 53°44' W 000°17'0 0.0
2019-Sep-10 09:28N 53°44' W 000°17'0 0.0
2019-Sep-10 08:58N 53°44' W 000°17'0 0.0
2019-Sep-10 08:30N 53°44' W 000°17'0 0.0
2019-Sep-10 08:00N 53°44' W 000°17'0 0.0
2019-Sep-10 07:30N 53°44' W 000°17'0 0.0
2019-Sep-10 07:00N 53°44' W 000°17'0 0.0
2019-Sep-10 06:30N 53°44' W 000°17'0 0.0
2019-Sep-10 06:00N 53°44' W 000°17'2 3.3
2019-Sep-10 05:30N 53°43' W 000°15'612.5
2019-Sep-10 05:00N 53°38' W 000°09'714.8
2019-Sep-10 04:30N 53°35' E 000°02'816.4
2019-Sep-10 04:00N 53°33' E 000°15'1617.2
2019-Sep-10 03:05N 53°26' E 000°39'217.7
2019-Sep-10 02:59N 53°25' E 000°42'918.0
2019-Sep-10 02:30N 53°22' E 000°56'918.1
2019-Sep-10 02:00N 53°16' E 001°07'918.6
2019-Sep-10 01:30N 53°09' E 001°17'1019.2
2019-Sep-10 01:00N 53°01' E 001°27'1019.2
2019-Sep-10 00:30N 52°55' E 001°39'1019.7
2019-Sep-10 00:00N 52°49' E 001°52'1019.6
2019-Sep-09 23:30N 52°44' E 002°06'1019.2
2019-Sep-09 23:00N 52°39' E 002°19'1018.9
2019-Sep-09 22:30N 52°34' E 002°32'3318.3
2019-Sep-09 20:43N 52°16' E 003°17'417.8
2019-Sep-09 20:29N 52°13' E 003°23'917.7
2019-Sep-09 20:00N 52°08' E 003°34'917.8
2019-Sep-09 19:30N 52°04' E 003°46'918.1
2019-Sep-09 19:00N 52°00' E 003°60'611.7
2019-Sep-09 18:30N 51°57' E 004°08'0 0.4
2019-Sep-09 18:00N 51°57' E 004°08'0 0.0
2019-Sep-09 17:30N 51°57' E 004°08'0 0.0
2019-Sep-09 17:00N 51°57' E 004°08'0 0.0
2019-Sep-09 16:26N 51°57' E 004°08'0 0.0
2019-Sep-09 15:59N 51°57' E 004°08'0 0.0
2019-Sep-09 15:29N 51°57' E 004°08'0 0.0
2019-Sep-09 14:59N 51°57' E 004°08'0 0.0
2019-Sep-09 14:29N 51°57' E 004°08'0 0.0
2019-Sep-09 13:58N 51°57' E 004°08'0 0.0
2019-Sep-09 13:28N 51°57' E 004°08'0 0.0
2019-Sep-09 12:58N 51°57' E 004°08'0 0.0
2019-Sep-09 12:28N 51°57' E 004°08'0 0.0
2019-Sep-09 11:58N 51°57' E 004°08'0 0.0
2019-Sep-09 11:30N 51°57' E 004°08'0 0.0
2019-Sep-09 11:00N 51°57' E 004°08'0 0.0
2019-Sep-09 10:30N 51°57' E 004°08'0 0.0
2019-Sep-09 10:00N 51°57' E 004°08'0 0.0
2019-Sep-09 09:29N 51°57' E 004°08'0 0.0
2019-Sep-09 08:59N 51°57' E 004°08'0 0.0
2019-Sep-09 08:29N 51°57' E 004°08'0 0.0
2019-Sep-09 07:59N 51°57' E 004°08'0 0.0
2019-Sep-09 07:29N 51°57' E 004°08'0 0.0
2019-Sep-09 06:55N 51°57' E 004°08'0 0.0
2019-Sep-09 06:31N 51°57' E 004°08'2 3.9
2019-Sep-09 06:00N 51°58' E 004°06'918.2
2019-Sep-09 05:30N 52°01' E 003°52'1019.7
2019-Sep-09 05:00N 52°05' E 003°37'1019.8
2019-Sep-09 04:29N 52°09' E 003°22'2820.3
2019-Sep-09 03:06N 52°27' E 002°46'220.3
2019-Sep-09 03:00N 52°28' E 002°43'2020.0
2019-Sep-09 02:00N 52°39' E 002°17'1019.7
2019-Sep-09 01:30N 52°44' E 002°03'1019.7
2019-Sep-09 01:00N 52°49' E 001°49'1019.1
2019-Sep-09 00:30N 52°54' E 001°35'918.7
2019-Sep-09 00:00N 52°58' E 001°21'918.3
2019-Sep-08 23:30N 53°01' E 001°07'917.9
2019-Sep-08 23:00N 53°07' E 000°56'2817.7
2019-Sep-08 21:26N 53°29' E 000°28'614.9
2019-Sep-08 21:00N 53°32' E 000°18'816.1
2019-Sep-08 20:30N 53°34' E 000°05'816.2
2019-Sep-08 20:00N 53°37' W 000°08'612.2
2019-Sep-08 19:30N 53°42' W 000°14'3 5.2
2019-Sep-08 19:00N 53°44' W 000°17'0 0.0
2019-Sep-08 18:30N 53°44' W 000°17'0 0.0
2019-Sep-08 17:57N 53°44' W 000°17'0 0.0
2019-Sep-08 17:30N 53°44' W 000°17'0 0.0
2019-Sep-08 17:00N 53°44' W 000°17'0 0.0
2019-Sep-08 16:29N 53°44' W 000°17'0 0.0
2019-Sep-08 15:59N 53°44' W 000°17'0 0.0
2019-Sep-08 15:29N 53°44' W 000°17'0 0.0
2019-Sep-08 14:59N 53°44' W 000°17'0 0.0
2019-Sep-08 14:29N 53°44' W 000°17'0 0.0
2019-Sep-08 13:58N 53°44' W 000°17'0 0.0
2019-Sep-08 13:28N 53°44' W 000°17'0 0.0
2019-Sep-08 12:58N 53°44' W 000°17'0 0.0
2019-Sep-08 12:28N 53°44' W 000°17'0 0.0
2019-Sep-08 12:00N 53°44' W 000°17'0 0.0
2019-Sep-08 11:30N 53°44' W 000°17'0 0.0
2019-Sep-08 11:00N 53°44' W 000°17'0 0.0
2019-Sep-08 10:30N 53°44' W 000°17'0 0.0
2019-Sep-08 10:00N 53°44' W 000°17'0 0.0
2019-Sep-08 09:29N 53°44' W 000°17'0 0.0
2019-Sep-08 08:59N 53°44' W 000°17'0 0.0
2019-Sep-08 08:29N 53°44' W 000°17'0 0.0
2019-Sep-08 07:59N 53°44' W 000°17'0 0.0
2019-Sep-08 07:28N 53°44' W 000°17'0 0.0
2019-Sep-08 07:00N 53°44' W 000°17'1 1.3
2019-Sep-08 06:30N 53°44' W 000°16'511.0
2019-Sep-08 06:00N 53°39' W 000°12'612.3
2019-Sep-08 05:30N 53°36' W 000°03'815.3
2019-Sep-08 05:00N 53°33' E 000°09'815.8
2019-Sep-08 04:30N 53°33' E 000°23'1216.7
2019-Sep-08 03:48N 53°27' E 000°39'516.5
2019-Sep-08 03:30N 53°25' E 000°46'816.5
2019-Sep-08 03:00N 53°21' E 000°58'816.7
2019-Sep-08 02:30N 53°15' E 001°08'816.3
2019-Sep-08 02:01N 53°09' E 001°17'816.4
2019-Sep-08 01:30N 53°03' E 001°26'816.3
2019-Sep-08 01:00N 52°57' E 001°36'917.5
2019-Sep-08 00:31N 52°51' E 001°47'918.3
2019-Sep-08 00:00N 52°46' E 001°59'918.6
2019-Sep-07 23:30N 52°41' E 002°12'918.6
2019-Sep-07 23:01N 52°36' E 002°25'918.3
2019-Sep-07 22:31N 52°31' E 002°38'918.2
2019-Sep-07 22:00N 52°26' E 002°51'1717.9
2019-Sep-07 21:04N 52°18' E 003°14'218.1
2019-Sep-07 20:58N 52°17' E 003°16'817.8
2019-Sep-07 20:30N 52°11' E 003°27'713.9
2019-Sep-07 20:00N 52°07' E 003°37'511.2
2019-Sep-07 19:30N 52°05' E 003°45'611.3
2019-Sep-07 19:00N 52°03' E 003°54'612.4
2019-Sep-07 18:31N 51°60' E 004°02'5 9.6
2019-Sep-07 18:01N 51°57' E 004°08'0 0.3
2019-Sep-07 17:29N 51°57' E 004°08'0 0.0
2019-Sep-07 16:59N 51°57' E 004°08'0 0.0
2019-Sep-07 16:29N 51°57' E 004°08'0 0.0
2019-Sep-07 15:58N 51°57' E 004°08'0 0.0
2019-Sep-07 15:25N 51°57' E 004°08'0 0.0
2019-Sep-07 14:58N 51°57' E 004°08'0 0.0
2019-Sep-07 14:28N 51°57' E 004°08'0 0.0
2019-Sep-07 14:00N 51°57' E 004°08'3 6.3
2019-Sep-07 13:31N 51°59' E 004°04'611.9
2019-Sep-07 13:00N 51°56' E 004°13'611.2
2019-Sep-07 12:30N 51°54' E 004°21'4 9.0
2019-Sep-07 12:00N 51°54' E 004°28'0 0.7
2019-Sep-07 11:30N 51°54' E 004°29'1 1.7
2019-Sep-07 11:00N 51°54' E 004°28'4 7.9
2019-Sep-07 10:30N 51°54' E 004°21'4 8.8
2019-Sep-07 10:00N 51°55' E 004°14'510.2
2019-Sep-07 09:30N 51°58' E 004°08'1 1.9
2019-Sep-07 09:00N 51°57' E 004°08'1 1.4
2019-Sep-07 08:30N 51°57' E 004°08'  

Dump ship's entire track history